createdAt,value
2022-11-24T00:02:24.299Z,97428.72
2022-11-24T00:04:50.854Z,97417.63
2022-11-24T00:07:17.260Z,97423.41
2022-11-24T00:09:43.657Z,97427.66
2022-11-24T00:12:10.162Z,97441.16
2022-11-24T00:14:36.671Z,97435.13
2022-11-24T00:17:03.204Z,97448.72
2022-11-24T00:19:29.838Z,97446.97
2022-11-24T00:21:56.255Z,97447.69
2022-11-24T00:24:22.678Z,97447.59
2022-11-24T00:26:49.089Z,97448.41
2022-11-24T00:29:15.520Z,97469.63
2022-11-24T00:31:42.727Z,97465.34
2022-11-24T00:34:14.087Z,97473.03
2022-11-24T00:36:41.947Z,97468.72
2022-11-24T00:39:11.936Z,97470.34
2022-11-24T00:41:38.595Z,97472.09
2022-11-24T00:44:05.367Z,97485.63
2022-11-24T00:46:31.871Z,97484.78
2022-11-24T00:49:00.361Z,97489.94
2022-11-24T00:51:29.687Z,97495.06
2022-11-24T00:53:59.563Z,97494.13
2022-11-24T00:56:27.438Z,97502.66
2022-11-24T00:58:54.182Z,97502.56
2022-11-24T01:01:23.821Z,97505.09
2022-11-24T01:03:51.054Z,97505.00
2022-11-24T01:06:20.496Z,97510.09
2022-11-24T01:08:47.499Z,97510.09
2022-11-24T01:11:15.105Z,97520.25
2022-11-24T01:13:43.698Z,97525.31
2022-11-24T01:16:19.860Z,97523.53
2022-11-24T01:18:46.990Z,97526.16
2022-11-24T01:21:14.243Z,97530.34
2022-11-24T01:23:40.729Z,97533.72
2022-11-24T01:26:09.320Z,97531.19
2022-11-24T01:28:37.026Z,97526.97
2022-11-24T01:31:07.010Z,97537.19
2022-11-24T01:33:34.737Z,97541.38
2022-11-24T01:36:01.706Z,97536.34
2022-11-24T01:38:28.497Z,97541.41
2022-11-24T01:41:08.031Z,97546.56
2022-11-24T01:43:34.777Z,97545.66
2022-11-24T01:46:40.232Z,97551.56
2022-11-24T01:49:24.543Z,97550.75
2022-11-24T01:52:08.732Z,97559.22
2022-11-24T01:54:43.842Z,97559.16
2022-11-24T01:57:17.256Z,97570.25
2022-11-24T01:59:46.858Z,97564.31
2022-11-24T02:02:14.449Z,97570.22
2022-11-24T02:04:41.986Z,97568.50
2022-11-24T02:07:08.827Z,97574.41
2022-11-24T02:09:48.042Z,97571.84
2022-11-24T02:12:14.446Z,97565.91
2022-11-24T02:14:43.438Z,97565.06
2022-11-24T02:17:12.875Z,97565.91
2022-11-24T02:19:57.554Z,97575.31
2022-11-24T02:23:00.894Z,97578.78
2022-11-24T02:25:42.572Z,97574.53
2022-11-24T02:28:12.425Z,97577.94
2022-11-24T02:30:39.439Z,97577.94
2022-11-24T02:33:05.862Z,97583.97
2022-11-24T02:35:33.248Z,97588.16
2022-11-24T02:37:59.611Z,97581.38
2022-11-24T02:40:30.909Z,97585.56
2022-11-24T02:43:20.368Z,97587.25
2022-11-24T02:45:47.216Z,97592.34
2022-11-24T02:48:15.300Z,97593.22
2022-11-24T02:50:41.793Z,97594.13
2022-11-24T02:53:08.246Z,97600.88
2022-11-24T02:55:34.676Z,97606.81
2022-11-24T02:58:01.130Z,97605.97
2022-11-24T03:00:29.976Z,97599.09
2022-11-24T03:02:56.490Z,97602.38
2022-11-24T03:05:22.978Z,97609.09
2022-11-24T03:07:49.486Z,97603.84
2022-11-24T03:10:16.319Z,97608.06
2022-11-24T03:12:42.742Z,97607.19
2022-11-24T03:15:09.621Z,97613.94
2022-11-24T03:17:36.042Z,97615.63
2022-11-24T03:20:04.816Z,97625.81
2022-11-24T03:22:31.796Z,97620.56
2022-11-24T03:24:58.281Z,97615.44
2022-11-24T03:27:24.727Z,97617.16
2022-11-24T03:29:53.490Z,97622.22
2022-11-24T03:32:19.858Z,97626.47
2022-11-24T03:34:47.422Z,97629.88
2022-11-24T03:37:13.855Z,97628.03
2022-11-24T03:39:40.298Z,97637.31
2022-11-24T03:42:06.732Z,97637.34
2022-11-24T03:44:33.459Z,97634.72
2022-11-24T03:47:00.041Z,97633.84
2022-11-24T03:49:26.580Z,97635.53
2022-11-24T03:51:53.090Z,97636.38
2022-11-24T03:54:19.468Z,97639.78
2022-11-24T03:56:45.914Z,97643.13
2022-11-24T03:59:12.320Z,97645.66
2022-11-24T04:01:38.870Z,97650.72
2022-11-24T04:04:05.471Z,97649.94
2022-11-24T04:06:31.978Z,97649.88
2022-11-24T04:09:00.477Z,97657.59
2022-11-24T04:11:45.565Z,97654.19
2022-11-24T04:14:13.797Z,97660.00
2022-11-24T04:16:40.620Z,97655.75
2022-11-24T04:19:07.209Z,97669.28
2022-11-24T04:21:33.633Z,97667.53
2022-11-24T04:24:00.040Z,97667.50
2022-11-24T04:26:27.787Z,97671.66
2022-11-24T04:28:54.203Z,97673.28
2022-11-24T04:31:20.666Z,97670.78
2022-11-24T04:33:47.295Z,97675.81
2022-11-24T04:36:13.867Z,97685.13
2022-11-24T04:39:25.775Z,97686.00
2022-11-24T04:41:26.597Z,97692.72
2022-11-24T04:43:52.996Z,97696.13
2022-11-24T04:46:19.590Z,97698.66
2022-11-24T04:48:46.057Z,97698.66
2022-11-24T04:51:14.747Z,97701.09
2022-11-24T04:53:41.316Z,97703.66
2022-11-24T04:56:08.238Z,97702.81
2022-11-24T04:58:34.861Z,97702.75
2022-11-24T05:01:01.350Z,97713.88
2022-11-24T05:03:27.865Z,97712.97
2022-11-24T05:05:54.261Z,97714.63
2022-11-24T05:08:20.724Z,97718.88
2022-11-24T05:10:47.104Z,97721.44
2022-11-24T05:13:13.882Z,97727.38
2022-11-24T05:15:41.890Z,97735.94
2022-11-24T05:18:12.370Z,97730.72
2022-11-24T05:20:39.246Z,97733.16
2022-11-24T05:23:08.276Z,97731.44
2022-11-24T05:25:35.749Z,97736.47
2022-11-24T05:28:04.019Z,97738.97
2022-11-24T05:30:31.533Z,97743.19
2022-11-24T05:32:58.301Z,97743.19
2022-11-24T05:35:24.959Z,97743.16
2022-11-24T05:37:52.505Z,97747.47
2022-11-24T05:40:21.480Z,97748.28
2022-11-24T05:42:48.409Z,97757.50
2022-11-24T05:45:20.181Z,97749.09
2022-11-24T05:47:47.654Z,97743.16
2022-11-24T05:50:15.943Z,97751.63
2022-11-24T05:52:42.433Z,97759.41
2022-11-24T05:55:09.951Z,97762.84
2022-11-24T05:57:37.885Z,97753.50
2022-11-24T06:00:06.891Z,97761.25
2022-11-24T06:02:33.525Z,97761.28
2022-11-24T06:05:00.075Z,97758.84
2022-11-24T06:07:26.720Z,97757.06
2022-11-24T06:09:53.200Z,97760.66
2022-11-24T06:12:20.378Z,97761.44
2022-11-24T06:14:46.781Z,97760.63
2022-11-24T06:17:13.331Z,97777.69
2022-11-24T06:19:42.056Z,97770.81
2022-11-24T06:22:09.016Z,97775.91
2022-11-24T06:24:35.852Z,97775.97
2022-11-24T06:27:05.189Z,97785.34
2022-11-24T06:29:31.579Z,97777.72
2022-11-24T06:31:58.014Z,97781.19
2022-11-24T06:34:24.433Z,97774.44
2022-11-24T06:36:50.808Z,97776.19
2022-11-24T06:39:17.229Z,97782.22
2022-11-24T06:41:43.620Z,97779.69
2022-11-24T06:44:10.154Z,97790.06
2022-11-24T06:46:36.656Z,97793.50
2022-11-24T06:49:03.290Z,97791.78
2022-11-24T06:51:29.732Z,97791.00
2022-11-24T06:53:56.298Z,97794.53
2022-11-24T06:56:23.026Z,97803.00
2022-11-24T06:58:51.811Z,97797.03
2022-11-24T07:01:19.503Z,97797.00
2022-11-24T07:03:48.046Z,97795.31
2022-11-24T07:06:15.195Z,97794.38
2022-11-24T07:08:44.124Z,97809.72
2022-11-24T07:11:15.421Z,97813.88
2022-11-24T07:13:42.777Z,97816.38
2022-11-24T07:16:23.818Z,97814.56
2022-11-24T07:18:51.597Z,97818.81
2022-11-24T07:21:20.243Z,97816.19
2022-11-24T07:23:54.592Z,97818.72
2022-11-24T07:26:22.441Z,97817.75
2022-11-24T07:28:49.403Z,97827.13
2022-11-24T07:31:23.893Z,97827.91
2022-11-24T07:33:52.516Z,97828.72
2022-11-24T07:36:19.288Z,97831.28
2022-11-24T07:38:45.938Z,97837.28
2022-11-24T07:41:17.914Z,97832.09
2022-11-24T07:43:44.314Z,97846.59
2022-11-24T07:46:14.844Z,97841.38
2022-11-24T07:48:41.258Z,97843.69
2022-11-24T07:51:11.037Z,97837.53
2022-11-24T07:53:38.139Z,97851.66
2022-11-24T07:56:06.208Z,97858.72
2022-11-24T07:58:35.976Z,97853.91
2022-11-24T08:01:11.361Z,97849.00
2022-11-24T08:03:38.351Z,97858.22
2022-11-24T08:08:51.355Z,97850.47
2022-11-24T08:11:18.285Z,97858.22
2022-11-24T08:13:45.018Z,97851.16
2022-11-24T08:16:17.186Z,97853.53
2022-11-24T08:18:44.693Z,97856.53
2022-11-24T08:21:13.830Z,97856.94
2022-11-24T08:23:40.552Z,97854.88
2022-11-24T08:26:10.637Z,97854.59
2022-11-24T08:28:38.178Z,97855.47
2022-11-24T08:31:07.413Z,97857.13
2022-11-24T08:33:34.150Z,97851.38
2022-11-24T08:36:09.360Z,97850.88
2022-11-24T08:38:36.343Z,97862.25
2022-11-24T08:41:08.405Z,97858.88
2022-11-24T08:43:35.503Z,97860.53
2022-11-24T08:46:04.109Z,97860.34
2022-11-24T08:48:32.805Z,97852.63
2022-11-24T08:50:59.797Z,97850.44
2022-11-24T08:53:26.213Z,97849.38
2022-11-24T08:55:52.603Z,97858.50
2022-11-24T08:58:19.177Z,97850.34
2022-11-24T09:00:45.576Z,97855.31
2022-11-24T09:03:12.154Z,97853.38
2022-11-24T09:05:54.185Z,97848.38
2022-11-24T09:08:20.750Z,97861.31
2022-11-24T09:10:49.093Z,97862.06
2022-11-24T09:13:15.501Z,97859.06
2022-11-24T09:15:41.901Z,97865.16
2022-11-24T09:18:11.199Z,97869.47
2022-11-24T09:20:37.598Z,97873.28
2022-11-24T09:23:04.015Z,97879.31
2022-11-24T09:25:30.394Z,97875.09
2022-11-24T09:27:57.336Z,97881.88
2022-11-24T09:30:23.715Z,97888.00
2022-11-24T09:32:50.172Z,97889.66
2022-11-24T09:35:16.645Z,97885.63
2022-11-24T09:37:45.095Z,97888.47
2022-11-24T09:40:16.406Z,97895.69
2022-11-24T09:42:53.739Z,97895.94
2022-11-24T09:46:06.061Z,97901.19
2022-11-24T09:48:41.362Z,97903.75
2022-11-24T09:51:12.544Z,97896.38
2022-11-24T09:53:52.169Z,97901.63
2022-11-24T09:56:46.358Z,97903.44
2022-11-24T09:59:18.788Z,97907.09
2022-11-24T10:01:47.479Z,97909.53
2022-11-24T10:04:29.651Z,97908.00
2022-11-24T10:06:58.961Z,97911.34
2022-11-24T10:09:47.246Z,97909.75
2022-11-24T10:12:22.813Z,97907.94
2022-11-24T10:15:03.965Z,97908.88
2022-11-24T10:17:59.119Z,97909.56
2022-11-24T10:20:42.249Z,97923.19
2022-11-24T10:23:40.866Z,97914.50
2022-11-24T10:26:31.874Z,97920.59
2022-11-24T10:28:58.300Z,97917.91
2022-11-24T10:31:33.351Z,97916.13
2022-11-24T10:34:26.004Z,97917.97
2022-11-24T10:36:58.360Z,97927.47
2022-11-24T10:39:37.600Z,97930.28
2022-11-24T10:42:37.008Z,97920.81
2022-11-24T10:45:10.931Z,97926.00
2022-11-24T10:47:38.348Z,97923.59
2022-11-24T10:50:27.345Z,97923.66
2022-11-24T10:53:08.762Z,97921.03
2022-11-24T10:55:56.963Z,97925.59
2022-11-24T10:58:38.569Z,97925.91
2022-11-24T11:01:14.040Z,97930.25
2022-11-24T11:03:59.827Z,97926.78
2022-11-24T11:06:32.340Z,97925.91
2022-11-24T11:09:07.972Z,97928.56
2022-11-24T11:11:36.026Z,97930.19
2022-11-24T11:14:07.532Z,97932.81
2022-11-24T11:16:38.596Z,97933.53
2022-11-24T11:19:58.692Z,97929.22
2022-11-24T11:22:28.625Z,97936.03
2022-11-24T11:25:15.631Z,97936.91
2022-11-24T11:27:42.237Z,97940.31
2022-11-24T11:36:11.228Z,97940.34
2022-11-24T11:38:39.274Z,97944.50
2022-11-24T11:41:10.767Z,97943.56
2022-11-24T11:43:41.023Z,97948.75
2022-11-24T11:46:13.853Z,97944.41
2022-11-24T11:48:44.762Z,97937.59
2022-11-24T11:51:26.917Z,97941.03
2022-11-24T11:54:20.376Z,97934.00
2022-11-24T11:57:05.133Z,97942.41
2022-11-24T12:00:03.919Z,97949.25
2022-11-24T12:02:55.233Z,97946.56
2022-11-24T12:05:35.219Z,97951.69
2022-11-24T12:08:27.078Z,97953.25
2022-11-24T12:11:08.757Z,97949.69
2022-11-24T12:13:45.355Z,97955.50
2022-11-24T12:16:27.829Z,97956.38
2022-11-24T12:19:15.650Z,97958.06
2022-11-24T12:22:05.894Z,97959.66
2022-11-24T12:24:41.506Z,97963.66
2022-11-24T12:27:24.582Z,97967.72
2022-11-24T12:30:00.984Z,97964.06
2022-11-24T12:32:36.305Z,97964.53
2022-11-24T12:35:05.950Z,97971.16
2022-11-24T12:38:00.384Z,97970.25
2022-11-24T12:41:33.693Z,97966.22
2022-11-24T12:43:59.348Z,97970.00
2022-11-24T12:46:39.472Z,97976.72
2022-11-24T12:49:14.733Z,97973.91
2022-11-24T12:51:51.261Z,97977.91
2022-11-24T12:54:20.768Z,97978.91
2022-11-24T12:57:07.388Z,97972.34
2022-11-24T12:59:43.802Z,97978.50
2022-11-24T13:02:31.569Z,97983.78
2022-11-24T13:05:31.799Z,97992.28
2022-11-24T13:08:02.796Z,97991.59
2022-11-24T13:10:54.798Z,97998.75
2022-11-24T13:13:19.624Z,98000.69
2022-11-24T13:18:56.827Z,98001.25
2022-11-24T13:21:47.057Z,98009.19
2022-11-24T13:27:12.273Z,98006.75
2022-11-24T13:29:40.187Z,98012.66
2022-11-24T13:32:06.511Z,98012.63
2022-11-24T13:34:39.043Z,98016.28
2022-11-24T13:37:32.103Z,98017.09
2022-11-24T13:40:11.432Z,98017.63
2022-11-24T13:42:56.271Z,98025.38
2022-11-24T13:45:49.194Z,98022.16
2022-11-24T13:48:22.135Z,98034.25
2022-11-24T13:50:54.747Z,98035.97
2022-11-24T13:53:27.235Z,98030.97
2022-11-24T13:56:03.201Z,98031.16
2022-11-24T13:58:36.177Z,98027.84
2022-11-24T14:01:06.750Z,98034.78
2022-11-24T14:03:36.867Z,98038.22
2022-11-24T14:06:03.795Z,98041.63
2022-11-24T14:08:37.562Z,98038.31
2022-11-24T14:11:12.623Z,98041.81
2022-11-24T14:13:39.021Z,98052.97
2022-11-24T14:16:06.873Z,98049.56
2022-11-24T14:18:34.946Z,98048.88
2022-11-24T14:21:33.381Z,98048.84
2022-11-24T14:24:08.663Z,98054.94
2022-11-24T14:26:38.113Z,98059.28
2022-11-24T14:29:16.791Z,98055.09
2022-11-24T14:31:59.915Z,98063.72
2022-11-24T14:34:29.361Z,98067.22
2022-11-24T14:36:57.542Z,98072.41
2022-11-24T14:39:25.960Z,98075.06
2022-11-24T14:42:00.668Z,98073.38
2022-11-24T14:44:29.665Z,98082.00
2022-11-24T14:47:12.933Z,98080.31
2022-11-24T14:49:41.833Z,98088.06
2022-11-24T14:52:18.078Z,98091.59
2022-11-24T14:54:53.661Z,98091.56
2022-11-24T14:57:23.610Z,98098.44
2022-11-24T15:00:12.005Z,98096.88
2022-11-24T15:02:46.221Z,98099.44
2022-11-24T15:05:13.486Z,98101.22
2022-11-24T15:07:43.759Z,98093.47
2022-11-24T15:10:33.906Z,98110.63
2022-11-24T15:13:02.903Z,98107.19
2022-11-24T15:15:36.616Z,98110.69
2022-11-24T15:18:05.365Z,98109.03
2022-11-24T15:20:45.568Z,98109.94
2022-11-24T15:23:20.750Z,98110.84
2022-11-24T15:25:47.719Z,98111.81
2022-11-24T15:28:14.386Z,98110.28
2022-11-24T15:30:41.013Z,98118.09
2022-11-24T15:33:18.788Z,98113.13
2022-11-24T15:35:46.369Z,98120.94
2022-11-24T15:38:13.148Z,98122.66
2022-11-24T15:40:41.921Z,98125.34
2022-11-24T15:43:19.842Z,98127.16
2022-11-24T15:45:46.379Z,98131.47
2022-11-24T15:48:17.664Z,98134.03
2022-11-24T15:50:45.938Z,98129.00
2022-11-24T15:53:34.687Z,98132.44
2022-11-24T15:56:03.446Z,98132.47
2022-11-24T15:58:29.883Z,98144.41
2022-11-24T16:00:56.534Z,98140.16
2022-11-24T16:06:19.075Z,98150.41
2022-11-24T16:08:50.354Z,98149.53
2022-11-24T16:11:16.771Z,98152.03
2022-11-24T16:13:48.359Z,98163.13
2022-11-24T16:16:18.760Z,98160.63
2022-11-24T16:18:45.481Z,98153.72
2022-11-24T16:21:12.226Z,98158.06
2022-11-24T16:23:38.668Z,98163.22
2022-11-24T16:26:05.459Z,98174.38
2022-11-24T16:28:32.324Z,98174.47
2022-11-24T16:30:58.781Z,98168.53
2022-11-24T16:33:25.361Z,98171.09
2022-11-24T16:35:51.825Z,98171.13
2022-11-24T16:38:21.274Z,98171.13
2022-11-24T16:40:52.537Z,98173.69
2022-11-24T16:43:19.258Z,98174.53
2022-11-24T16:45:45.948Z,98174.50
2022-11-24T16:48:12.595Z,98177.03
2022-11-24T16:50:39.014Z,98183.91
2022-11-24T16:53:05.421Z,98179.66
2022-11-24T16:55:31.830Z,98177.91
2022-11-24T16:57:58.258Z,98177.91
2022-11-24T17:00:24.712Z,98177.03
2022-11-24T17:02:51.470Z,98179.56
2022-11-24T17:05:17.898Z,98182.91
2022-11-24T17:07:44.438Z,98182.91
2022-11-24T17:10:10.973Z,98186.31
2022-11-24T17:12:37.698Z,98187.16
2022-11-24T17:18:22.250Z,98186.31
2022-11-24T17:20:38.407Z,98190.69
2022-11-24T17:23:04.829Z,98187.31
2022-11-24T17:25:32.351Z,98196.75
2022-11-24T17:27:58.825Z,98188.19
2022-11-24T17:30:25.212Z,98193.41
2022-11-24T17:32:56.646Z,98201.97
2022-11-24T17:35:23.621Z,98198.56
2022-11-24T17:37:50.035Z,98205.41
2022-11-24T17:40:34.276Z,98198.56
2022-11-24T17:43:01.554Z,98209.69
2022-11-24T17:45:29.586Z,98213.13
2022-11-24T17:47:58.463Z,98216.59
2022-11-24T17:50:26.266Z,98210.63
2022-11-24T17:52:53.452Z,98213.16
2022-11-24T17:55:19.936Z,98219.22
2022-11-24T17:57:46.376Z,98220.09
2022-11-24T18:00:13.595Z,98215.84
2022-11-24T18:02:40.157Z,98218.47
2022-11-24T18:05:06.958Z,98224.47
2022-11-24T18:07:36.230Z,98221.03
2022-11-24T18:10:03.274Z,98219.41
2022-11-24T18:12:29.649Z,98233.94
2022-11-24T18:14:56.160Z,98223.78
2022-11-24T18:17:22.640Z,98237.47
2022-11-24T18:19:49.028Z,98233.34
2022-11-24T18:22:15.503Z,98230.09
2022-11-24T18:24:41.976Z,98236.19
2022-11-24T18:27:08.393Z,98230.31
2022-11-24T18:29:34.790Z,98228.69
2022-11-24T18:32:01.307Z,98233.84
2022-11-24T18:34:27.768Z,98235.66
2022-11-24T18:36:54.279Z,98236.59
2022-11-24T18:39:20.905Z,98239.22
2022-11-24T18:41:47.597Z,98242.66
2022-11-24T18:44:14.078Z,98243.59
2022-11-24T18:46:40.454Z,98244.41
2022-11-24T18:49:07.283Z,98238.50
2022-11-24T18:51:33.993Z,98245.34
2022-11-24T18:54:02.368Z,98247.94
2022-11-24T18:56:29.154Z,98242.03
2022-11-24T18:58:56.423Z,98251.44
2022-11-24T19:01:25.469Z,98252.31
2022-11-24T19:04:03.067Z,98254.84
2022-11-24T19:06:39.662Z,98256.56
2022-11-24T19:09:18.435Z,98255.72
2022-11-24T19:11:46.190Z,98249.72
2022-11-24T19:14:17.919Z,98247.97
2022-11-24T19:16:44.863Z,98254.78
2022-11-24T19:19:12.431Z,98256.44
2022-11-24T19:21:40.116Z,98252.22
2022-11-24T19:24:09.931Z,98261.53
2022-11-24T19:26:36.975Z,98253.88
2022-11-24T19:29:04.655Z,98254.59
2022-11-24T19:31:31.532Z,98261.44
2022-11-24T19:33:59.662Z,98260.53
2022-11-24T19:36:26.326Z,98264.78
2022-11-24T19:38:55.057Z,98269.03
2022-11-24T19:41:22.840Z,98266.47
2022-11-24T19:43:50.171Z,98263.03
2022-11-24T19:46:18.552Z,98270.63
2022-11-24T19:48:48.494Z,98263.03
2022-11-24T19:51:17.740Z,98268.13
2022-11-24T19:53:44.639Z,98278.38
2022-11-24T19:56:17.517Z,98277.53
2022-11-24T19:58:44.337Z,98277.50
2022-11-24T20:01:11.954Z,98272.38
2022-11-24T20:03:39.306Z,98273.22
2022-11-24T20:06:07.427Z,98280.00
2022-11-24T20:08:35.708Z,98271.50
2022-11-24T20:11:10.510Z,98277.44
2022-11-24T20:13:39.171Z,98280.00
2022-11-24T20:16:11.710Z,98279.19
2022-11-24T20:18:42.215Z,98274.97
2022-11-24T20:21:20.422Z,98274.97
2022-11-24T20:23:53.431Z,98278.38
2022-11-24T20:26:22.823Z,98277.53
2022-11-24T20:28:50.728Z,98277.53
2022-11-24T20:31:21.059Z,98279.25
2022-11-24T20:33:47.588Z,98286.94
2022-11-24T20:36:17.253Z,98281.84
2022-11-24T20:38:44.640Z,98279.34
2022-11-24T20:41:20.464Z,98273.41
2022-11-24T20:43:48.174Z,98276.00
2022-11-24T20:46:20.326Z,98281.97
2022-11-24T20:48:48.396Z,98283.75
2022-11-24T20:51:24.291Z,98281.19
2022-11-24T20:53:53.382Z,98276.06
2022-11-24T20:56:23.330Z,98270.13
2022-11-24T20:58:50.353Z,98276.13
2022-11-24T21:01:22.051Z,98271.88
2022-11-24T21:03:53.498Z,98278.78
2022-11-24T21:06:20.134Z,98276.22
2022-11-24T21:08:46.559Z,98289.84
2022-11-24T21:11:13.825Z,98272.78
2022-11-24T21:13:42.789Z,98284.78
2022-11-24T21:16:13.473Z,98284.78
2022-11-24T21:18:40.004Z,98283.94
2022-11-24T21:21:06.879Z,98296.75
2022-11-24T21:23:33.345Z,98289.13
2022-11-24T21:26:05.209Z,98285.75
2022-11-24T21:28:32.794Z,98297.69
2022-11-24T21:31:06.499Z,98288.31
2022-11-24T21:33:33.599Z,98286.66
2022-11-24T21:36:04.915Z,98280.75
2022-11-24T21:38:31.591Z,98285.06
2022-11-24T21:41:02.191Z,98288.47
2022-11-24T21:43:29.975Z,98287.66
2022-11-24T21:46:17.201Z,98291.13
2022-11-24T21:48:44.038Z,98292.03
2022-11-24T21:51:15.658Z,98294.56
2022-11-24T21:53:43.023Z,98286.13
2022-11-24T21:56:17.801Z,98290.38
2022-11-24T21:58:48.016Z,98295.47
2022-11-24T22:01:16.146Z,98283.56
2022-11-24T22:03:43.130Z,98286.16
2022-11-24T22:06:09.910Z,98293.84
2022-11-24T22:08:36.320Z,98291.28
2022-11-24T22:11:08.348Z,98291.28
2022-11-24T22:13:34.812Z,98289.56
2022-11-24T22:16:02.385Z,98286.16
2022-11-24T22:18:40.169Z,98283.66
2022-11-24T22:21:08.286Z,98277.75
2022-11-24T22:23:36.456Z,98279.44
2022-11-24T22:26:05.790Z,98270.94
2022-11-24T22:28:36.464Z,98276.13
2022-11-24T22:31:07.991Z,98274.41
2022-11-24T22:33:35.067Z,98277.81
2022-11-24T22:36:02.200Z,98290.59
2022-11-24T22:38:30.088Z,98280.41
2022-11-24T22:41:04.131Z,98288.09
2022-11-24T22:43:35.247Z,98281.31
2022-11-24T22:46:11.274Z,98287.31
2022-11-24T22:48:38.243Z,98286.47
2022-11-24T22:51:12.036Z,98285.66
2022-11-24T22:53:39.058Z,98284.81
2022-11-24T22:56:09.375Z,98290.75
2022-11-24T22:58:36.854Z,98294.19
2022-11-24T23:01:12.509Z,98283.16
2022-11-24T23:03:39.348Z,98279.78
2022-11-24T23:06:09.791Z,98278.88
2022-11-24T23:08:36.481Z,98280.56
2022-11-24T23:11:05.916Z,98277.16
2022-11-24T23:13:32.897Z,98284.81
2022-11-24T23:16:04.200Z,98284.81
2022-11-24T23:18:30.956Z,98284.81
2022-11-24T23:21:04.456Z,98278.88
2022-11-24T23:23:30.813Z,98282.25
2022-11-24T23:26:00.311Z,98285.66
2022-11-24T23:28:27.108Z,98283.13
2022-11-24T23:30:56.394Z,98285.66
2022-11-24T23:33:22.785Z,98276.34
2022-11-24T23:35:49.238Z,98280.59
2022-11-24T23:38:15.589Z,98279.75
2022-11-24T23:40:41.992Z,98274.66
2022-11-24T23:43:08.445Z,98284.84
2022-11-24T23:45:34.884Z,98278.06
2022-11-24T23:48:02.293Z,98281.47
2022-11-24T23:50:28.990Z,98284.84
2022-11-24T23:52:55.378Z,98276.38
2022-11-24T23:55:21.818Z,98276.41
2022-11-24T23:57:48.451Z,98281.50
